Observation data for Friona on 03/11/2018      Previous  Date  Next       Current Mesonet Observations  Soil Data  Daily Summary Page  Observations in Plain Language
KFAS 110600Z 02023G30KT 10/M07 A3008 RMK A01 T00961066  RH  031%=      5-min Rain = 0
KFAS 110605Z 02025G31KT 10/M07 A3009 RMK A01 T00961065  RH  031%=      5-min Rain = 0
KFAS 110610Z 03026G35KT 10/M06 A3009 RMK A01 T00951064  RH  032%=      5-min Rain = 0
KFAS 110615Z 03026G35KT 10/M06 A3009 RMK A01 T00951064  RH  032%=      5-min Rain = 0
KFAS 110620Z 02024G32KT 09/M06 A301 RMK A01 T00941064  RH  032%=      5-min Rain = 0
KFAS 110625Z 02024G32KT 09/M06 A301 RMK A01 T00921063  RH  033%=      5-min Rain = 0
KFAS 110630Z 02025G34KT 09/M06 A301 RMK A01 T00921064  RH  033%=      5-min Rain = 0
KFAS 110635Z 02025G30KT 09/M07 A301 RMK A01 T00911065  RH  033%=      5-min Rain = 0
KFAS 110640Z 02024G30KT 09/M07 A3011 RMK A01 T00901065  RH  033%=      5-min Rain = 0
KFAS 110645Z 03022G28KT 09/M07 A3011 RMK A01 T00891066  RH  033%=      5-min Rain = 0
KFAS 110650Z 02022G29KT 09/M07 A3012 RMK A01 T00881066  RH  033%=      5-min Rain = 0
KFAS 110655Z 02023G30KT 09/M07 A3012 RMK A01 T00881066  RH  033%=      5-min Rain = 0
KFAS 110700Z 02021G26KT 09/M07 A3012 RMK A01 T00871065  RH  034%=      5-min Rain = 0
KFAS 110705Z 03022G28KT 09/M07 A3012 RMK A01 T00861066  RH  034%=      5-min Rain = 0
KFAS 110710Z 03023G31KT 09/M07 A3012 RMK A01 T00851066  RH  034%=      5-min Rain = 0
KFAS 110715Z 03022G28KT 09/M07 A3012 RMK A01 T00851066  RH  034%=      5-min Rain = 0
KFAS 110720Z 02020G25KT 08/M07 A3012 RMK A01 T00841065  RH  034%=      5-min Rain = 0
KFAS 110725Z 03020G28KT 08/M07 A3012 RMK A01 T00831065  RH  034%=      5-min Rain = 0
KFAS 110730Z 03019G24KT 08/M07 A3013 RMK A01 T00821065  RH  035%=      5-min Rain = 0
KFAS 110735Z 03020G27KT 08/M07 A3013 RMK A01 T00821065  RH  035%=      5-min Rain = 0
KFAS 110740Z 02020G25KT 08/M06 A3013 RMK A01 T00811064  RH  035%=      5-min Rain = 0
KFAS 110745Z 02018KT 08/M06 A3013 RMK A01 T00811064  RH  035%=      5-min Rain = 0
KFAS 110750Z 02017G24KT 08/M06 A3013 RMK A01 T00801064  RH  035%=      5-min Rain = 0
KFAS 110755Z 02017KT 08/M06 A3013 RMK A01 T00791064  RH  036%=      5-min Rain = 0
KFAS 110800Z 02016G21KT 08/M07 A3014 RMK A01 T00781065  RH  036%=      5-min Rain = 0
KFAS 110805Z 02017G22KT 08/M07 A3014 RMK A01 T00781066  RH  035%=      5-min Rain = 0
KFAS 110810Z 02016KT 08/M07 A3014 RMK A01 T00771065  RH  036%=      5-min Rain = 0
KFAS 110815Z 02017G22KT 08/M07 A3014 RMK A01 T00771066  RH  036%=      5-min Rain = 0
KFAS 110820Z 02017KT 08/M07 A3014 RMK A01 T00771066  RH  036%=      5-min Rain = 0
KFAS 110825Z 02018G23KT 08/M07 A3014 RMK A01 T00761067  RH  036%=      5-min Rain = 0
KFAS 110830Z 02016G21KT 08/M07 A3014 RMK A01 T00761066  RH  036%=      5-min Rain = 0
KFAS 110835Z 02018KT 08/M07 A3014 RMK A01 T00751066  RH  036%=      5-min Rain = 0
KFAS 110840Z 02017KT 08/M07 A3014 RMK A01 T00751066  RH  036%=      5-min Rain = 0
KFAS 110845Z 02017G22KT 07/M07 A3014 RMK A01 T00741065  RH  037%=      5-min Rain = 0
KFAS 110850Z 02017KT 07/M07 A3014 RMK A01 T00731066  RH  037%=      5-min Rain = 0
KFAS 110855Z 02017G22KT 07/M07 A3014 RMK A01 T00731066  RH  037%=      5-min Rain = 0
KFAS 110900Z 02017KT 07/M07 A3014 RMK A01 T00731067  RH  036%=      5-min Rain = 0
KFAS 110905Z 02017KT 07/M07 A3014 RMK A01 T00721067  RH  037%=      5-min Rain = 0
KFAS 110910Z 01016KT 07/M07 A3014 RMK A01 T00711067  RH  037%=      5-min Rain = 0
KFAS 110915Z 02017G23KT 07/M07 A3014 RMK A01 T00711068  RH  036%=      5-min Rain = 0
KFAS 110920Z 02016KT 07/M07 A3014 RMK A01 T00701069  RH  037%=      5-min Rain = 0
KFAS 110925Z 01017G22KT 07/M07 A3014 RMK A01 T00691070  RH  036%=      5-min Rain = 0
KFAS 110930Z 01017G22KT 07/M07 A3015 RMK A01 T00691072  RH  036%=      5-min Rain = 0
KFAS 110935Z 02016G22KT 07/M07 A3015 RMK A01 T00681072  RH  036%=      5-min Rain = 0
KFAS 110940Z 02018G23KT 07/M07 A3015 RMK A01 T00671073  RH  036%=      5-min Rain = 0
KFAS 110945Z 02017KT 07/M07 A3015 RMK A01 T00671073  RH  036%=      5-min Rain = 0
KFAS 110950Z 01017G22KT 07/M07 A3015 RMK A01 T00661073  RH  036%=      5-min Rain = 0
KFAS 110955Z 02019G24KT 07/M08 A3015 RMK A01 T00651075  RH  036%=      5-min Rain = 0
KFAS 111000Z 02022G27KT 07/M08 A3015 RMK A01 T00651077  RH  035%=      5-min Rain = 0
KFAS 111005Z 02021G27KT 07/M08 A3015 RMK A01 T00651079  RH  035%=      5-min Rain = 0
KFAS 111010Z 02022G28KT 06/M08 A3015 RMK A01 T00641080  RH  035%=      5-min Rain = 0
KFAS 111015Z 02023G32KT 06/M08 A3015 RMK A01 T00631081  RH  035%=      5-min Rain = 0
KFAS 111020Z 02024G30KT 06/M08 A3016 RMK A01 T00621081  RH  035%=      5-min Rain = 0
KFAS 111025Z 02024G31KT 06/M08 A3016 RMK A01 T00601080  RH  036%=      5-min Rain = 0
KFAS 111030Z 02024G30KT 06/M08 A3016 RMK A01 T00591079  RH  036%=      5-min Rain = 0
KFAS 111035Z 01022G28KT 06/M08 A3016 RMK A01 T00581079  RH  037%=      5-min Rain = 0
KFAS 111040Z 01023G30KT 06/M08 A3016 RMK A01 T00561079  RH  037%=      5-min Rain = 0
KFAS 111045Z 02021G27KT 05/M08 A3016 RMK A01 T00541078  RH  038%=      5-min Rain = 0
KFAS 111050Z 02025G30KT 05/M08 A3016 RMK A01 T00531079  RH  038%=      5-min Rain = 0
KFAS 111055Z 02021G28KT 05/M08 A3016 RMK A01 T00521077  RH  039%=      5-min Rain = 0
KFAS 111100Z 02022G27KT 05/M08 A3017 RMK A01 T00511078  RH  039%=      5-min Rain = 0
KFAS 111105Z 01020G25KT 05/M08 A3017 RMK A01 T00511078  RH  039%=      5-min Rain = 0
KFAS 111110Z 01019G25KT 05/M08 A3017 RMK A01 T00501079  RH  039%=      5-min Rain = 0
KFAS 111115Z 01022G28KT 05/M08 A3018 RMK A01 T00481083  RH  038%=      5-min Rain = 0
KFAS 111120Z 01018G26KT 05/M09 A3018 RMK A01 T00461085  RH  038%=      5-min Rain = 0
KFAS 111125Z 01018G24KT 05/M09 A3019 RMK A01 T00451088  RH  037%=      5-min Rain = 0
KFAS 111130Z 01020G25KT 04/M09 A3019 RMK A01 T00441090  RH  037%=      5-min Rain = 0
KFAS 111135Z 01020G25KT 04/M09 A302 RMK A01 T00421090  RH  037%=      5-min Rain = 0
KFAS 111140Z 01021G27KT 04/M09 A302 RMK A01 T00421089  RH  038%=      5-min Rain = 0
KFAS 111145Z 02020G26KT 04/M09 A3019 RMK A01 T00411087  RH  039%=      5-min Rain = 0
KFAS 111150Z 02021G26KT 04/M09 A3019 RMK A01 T00401086  RH  039%=      5-min Rain = 0
KFAS 111155Z 02023KT 04/M09 A3019 RMK A01 T00391086  RH  040%=      5-min Rain = 0
KFAS 111200Z 02021G28KT 04/M09 A3019 RMK A01 T00381085  RH  040%=      5-min Rain = 0
KFAS 111205Z 02024G30KT 04/M09 A3019 RMK A01 T00371086  RH  040%=      5-min Rain = 0
KFAS 111210Z 02020G28KT 04/M09 A302 RMK A01 T00361085  RH  041%=      5-min Rain = 0
KFAS 111215Z 02021G26KT 04/M09 A302 RMK A01 T00351086  RH  041%=      5-min Rain = 0
KFAS 111220Z 02019G25KT 03/M09 A3021 RMK A01 T00341086  RH  041%=      5-min Rain = 0
KFAS 111225Z 02019G24KT 03/M09 A3021 RMK A01 T00331087  RH  041%=      5-min Rain = 0
KFAS 111230Z 02019G24KT 03/M09 A3022 RMK A01 T00331086  RH  041%=      5-min Rain = 0
KFAS 111235Z 02018G23KT 03/M08 A3022 RMK A01 T00331084  RH  042%=      5-min Rain = 0
KFAS 111240Z 02019KT 03/M08 A3023 RMK A01 T00321083  RH  043%=      5-min Rain = 0
KFAS 111245Z 02017G22KT 03/M08 A3023 RMK A01 T00311081  RH  043%=      5-min Rain = 0
KFAS 111250Z 02016KT 03/M08 A3023 RMK A01 T00311079  RH  044%=      5-min Rain = 0
KFAS 111255Z 02017G22KT 03/M08 A3023 RMK A01 T00301080  RH  044%=      5-min Rain = 0
KFAS 111300Z 02016G22KT 03/M08 A3023 RMK A01 T00301080  RH  044%=      5-min Rain = 0
KFAS 111305Z 02017G22KT 03/M08 A3023 RMK A01 T00301079  RH  045%=      5-min Rain = 0
KFAS 111310Z 02019G24KT 03/M08 A3023 RMK A01 T00291078  RH  045%=      5-min Rain = 0
KFAS 111315Z 02018G23KT 03/M08 A3023 RMK A01 T00281077  RH  046%=      5-min Rain = 0
KFAS 111320Z 02017KT 03/M08 A3024 RMK A01 T00281077  RH  046%=      5-min Rain = 0
KFAS 111325Z 02017G22KT 03/M08 A3024 RMK A01 T00271075  RH  047%=      5-min Rain = 0
KFAS 111330Z 02017G23KT 03/M08 A3025 RMK A01 T00271076  RH  047%=      5-min Rain = 0
KFAS 111335Z 01016G21KT 03/M08 A3025 RMK A01 T00271075  RH  047%=      5-min Rain = 0
KFAS 111340Z 02018G23KT 03/M07 A3025 RMK A01 T00261072  RH  048%=      5-min Rain = 0
KFAS 111345Z 02017KT 03/M07 A3026 RMK A01 T00261072  RH  049%=      5-min Rain = 0
KFAS 111350Z 01017G22KT 03/M07 A3026 RMK A01 T00251072  RH  049%=      5-min Rain = 0
KFAS 111355Z 02018KT 02/M07 A3026 RMK A01 T00241070  RH  050%=      5-min Rain = 0
KFAS 111400Z 02017G22KT 02/M07 A3027 RMK A01 T00241070  RH  050%=      5-min Rain = 0
KFAS 111405Z 01018G23KT 02/M07 A3027 RMK A01 T00241071  RH  050%=      5-min Rain = 0
KFAS 111410Z 02022KT 02/M07 A3027 RMK A01 T00231071  RH  050%=      5-min Rain = 0
KFAS 111415Z 02018G24KT 02/M07 A3027 RMK A01 T00241070  RH  050%=      5-min Rain = 0
KFAS 111420Z 02017G23KT 03/M07 A3027 RMK A01 T00251072  RH  049%=      5-min Rain = 0
KFAS 111425Z 01018G24KT 03/M07 A3028 RMK A01 T00261074  RH  048%=      5-min Rain = 0
KFAS 111430Z 01016KT 03/M07 A3029 RMK A01 T00261073  RH  048%=      5-min Rain = 0
KFAS 111435Z 01017G23KT 03/M07 A3029 RMK A01 T00261074  RH  048%=      5-min Rain = 0
KFAS 111440Z 01018G23KT 03/M07 A3029 RMK A01 T00261074  RH  048%=      5-min Rain = 0
KFAS 111445Z 01017G22KT 03/M07 A303 RMK A01 T00261074  RH  047%=      5-min Rain = 0
KFAS 111450Z 01017G23KT 03/M07 A303 RMK A01 T00261074  RH  047%=      5-min Rain = 0
KFAS 111455Z 01016KT 03/M07 A303 RMK A01 T00271074  RH  047%=      5-min Rain = 0
KFAS 111500Z 01017KT 03/M08 A303 RMK A01 T00281076  RH  046%=      5-min Rain = 0
KFAS 111505Z 01018KT 03/M08 A303 RMK A01 T00291075  RH  046%=      5-min Rain = 0
KFAS 111510Z 01021G26KT 03/M07 A303 RMK A01 T00301072  RH  047%=      5-min Rain = 0
KFAS 111515Z 02021G27KT 03/M07 A303 RMK A01 T00311072  RH  047%=      5-min Rain = 0
KFAS 111520Z 02021KT 03/M08 A303 RMK A01 T00321075  RH  045%=      5-min Rain = 0
KFAS 111525Z 02019G24KT 03/M08 A3031 RMK A01 T00331076  RH  044%=      5-min Rain = 0
KFAS 111530Z 02019G24KT 04/M08 A3031 RMK A01 T00361078  RH  043%=      5-min Rain = 0
KFAS 111535Z 02018G24KT 04/M08 A3031 RMK A01 T00401078  RH  042%=      5-min Rain = 0
KFAS 111540Z 01020G25KT 05/M08 A3031 RMK A01 T00461079  RH  040%=      5-min Rain = 0
KFAS 111545Z 01020G25KT 05/M08 A3031 RMK A01 T00511081  RH  038%=      5-min Rain = 0
KFAS 111550Z 02021KT 05/M09 A3031 RMK A01 T00481085  RH  038%=      5-min Rain = 0
KFAS 111555Z 02021KT 05/M09 A3031 RMK A01 T00471086  RH  037%=      5-min Rain = 0
KFAS 111600Z 02018G24KT 05/M09 A3032 RMK A01 T00491086  RH  037%=      5-min Rain = 0
KFAS 111605Z 01019G25KT 05/M09 A3032 RMK A01 T00511088  RH  036%=      5-min Rain = 0
KFAS 111610Z 02019G25KT 05/M09 A3032 RMK A01 T00521088  RH  036%=      5-min Rain = 0
KFAS 111615Z 02017G22KT 05/M09 A3032 RMK A01 T00541087  RH  036%=      5-min Rain = 0
KFAS 111620Z 02017G23KT 05/M09 A3033 RMK A01 T00541088  RH  035%=      5-min Rain = 0
KFAS 111625Z 02018G24KT 06/M09 A3033 RMK A01 T00571088  RH  034%=      5-min Rain = 0
KFAS 111630Z 02018KT 06/M09 A3033 RMK A01 T00561091  RH  034%=      5-min Rain = 0
KFAS 111635Z 02018G23KT 06/M09 A3033 RMK A01 T00561091  RH  034%=      5-min Rain = 0
KFAS 111640Z 02018KT 06/M09 A3033 RMK A01 T00621090  RH  033%=      5-min Rain = 0
KFAS 111645Z 01017G24KT 06/M09 A3033 RMK A01 T00621092  RH  032%=      5-min Rain = 0
KFAS 111650Z 01018KT 06/M09 A3032 RMK A01 T00641090  RH  032%=      5-min Rain = 0
KFAS 111655Z 01019G24KT 07/M09 A3033 RMK A01 T00661090  RH  032%=      5-min Rain = 0
KFAS 111700Z 02017G22KT 07/M09 A3033 RMK A01 T00681089  RH  032%=      5-min Rain = 0
KFAS 111705Z 02016G21KT 07/M09 A3033 RMK A01 T00691090  RH  031%=      5-min Rain = 0
KFAS 111710Z 01018KT 07/M09 A3032 RMK A01 T00701091  RH  031%=      5-min Rain = 0
KFAS 111715Z 02018G23KT 07/M09 A3032 RMK A01 T00701091  RH  031%=      5-min Rain = 0
KFAS 111720Z 02017G23KT 07/M09 A3032 RMK A01 T00741089  RH  030%=      5-min Rain = 0
KFAS 111725Z 02018KT 07/M09 A3032 RMK A01 T00731091  RH  030%=      5-min Rain = 0
KFAS 111730Z 03018G24KT 07/M09 A3032 RMK A01 T00711093  RH  030%=      5-min Rain = 0
KFAS 111735Z 02017G22KT 07/M09 A3032 RMK A01 T00731091  RH  030%=      5-min Rain = 0
KFAS 111740Z 01016G22KT 07/M09 A3032 RMK A01 T00731093  RH  030%=      5-min Rain = 0
KFAS 111745Z 03015G20KT 07/M09 A3032 RMK A01 T00721093  RH  030%=      5-min Rain = 0
KFAS 111750Z 01016G21KT 08/M09 A3032 RMK A01 T00751093  RH  029%=      5-min Rain = 0
KFAS 111755Z 36015G21KT 08/M09 A3032 RMK A01 T00791093  RH  028%=      5-min Rain = 0
KFAS 111800Z 01014G19KT 08/M09 A3032 RMK A01 T00821092  RH  028%=      5-min Rain = 0
KFAS 111805Z 00016G22KT 09/M09 A3032 RMK A01 T00861094  RH  027%=      5-min Rain = 0
KFAS 111810Z 36016G21KT 09/M10 A3033 RMK A01 T00851097  RH  026%=      5-min Rain = 0
KFAS 111815Z 01014G23KT 09/M10 A3032 RMK A01 T00851097  RH  026%=      5-min Rain = 0
KFAS 111820Z 01015G23KT 09/M10 A3032 RMK A01 T00871099  RH  026%=      5-min Rain = 0
KFAS 111825Z 01016G22KT 09/M10 A3032 RMK A01 T00901097  RH  025%=      5-min Rain = 0
KFAS 111830Z 02016G22KT 09/M10 A3033 RMK A01 T00901098  RH  025%=      5-min Rain = 0
KFAS 111835Z 02014G21KT 09/M10 A3033 RMK A01 T00881096  RH  026%=      5-min Rain = 0
KFAS 111840Z 02016KT 09/M10 A3032 RMK A01 T00911097  RH  025%=      5-min Rain = 0
KFAS 111845Z 03013G20KT 09/M10 A3032 RMK A01 T00901097  RH  026%=      5-min Rain = 0
KFAS 111850Z 01015KT 09/M10 A3032 RMK A01 T00881098  RH  026%=      5-min Rain = 0
KFAS 111855Z 00013KT 09/M10 A3032 RMK A01 T00861098  RH  026%=      5-min Rain = 0
KFAS 111900Z 01012KT 09/M10 A3032 RMK A01 T00901097  RH  025%=      5-min Rain = 0
KFAS 111905Z 02015G21KT 10/M10 A3032 RMK A01 T00971096  RH  024%=      5-min Rain = 0
KFAS 111910Z 36013G18KT 09/M10 A3032 RMK A01 T00941099  RH  024%=      5-min Rain = 0
KFAS 111915Z 01014G21KT 10/M10 A3031 RMK A01 T00971098  RH  024%=      5-min Rain = 0
KFAS 111920Z 00014G22KT 10/M10 A3031 RMK A01 T00951098  RH  025%=      5-min Rain = 0
KFAS 111925Z 02013KT 10/M10 A3031 RMK A01 T01011095  RH  024%=      5-min Rain = 0
KFAS 111930Z 03013KT 10/M09 A3031 RMK A01 T01011094  RH  024%=      5-min Rain = 0
KFAS 111935Z 02016G22KT 10/M09 A3031 RMK A01 T01041093  RH  024%=      5-min Rain = 0
KFAS 111940Z 01014KT 10/M09 A3031 RMK A01 T01021094  RH  024%=      5-min Rain = 0
KFAS 111945Z 02014G20KT 10/M09 A3031 RMK A01 T01041092  RH  024%=      5-min Rain = 0
KFAS 111950Z 02015G20KT 11/M09 A3031 RMK A01 T01061092  RH  024%=      5-min Rain = 0
KFAS 111955Z 01012G20KT 11/M09 A303 RMK A01 T01061092  RH  024%=      5-min Rain = 0
KFAS 112000Z 01015G22KT 11/M09 A303 RMK A01 T01081094  RH  023%=      5-min Rain = 0
KFAS 112005Z 36014G19KT 10/M10 A303 RMK A01 T01041098  RH  023%=      5-min Rain = 0
KFAS 112010Z 02012G18KT 10/M10 A303 RMK A01 T01001097  RH  024%=      5-min Rain = 0
KFAS 112015Z 02014G19KT 10/M10 A303 RMK A01 T01031096  RH  023%=      5-min Rain = 0
KFAS 112020Z 02012G18KT 10/M10 A303 RMK A01 T01031097  RH  023%=      5-min Rain = 0
KFAS 112025Z 02013KT 11/M10 A303 RMK A01 T01051096  RH  023%=      5-min Rain = 0
KFAS 112030Z 02012G21KT 11/M10 A303 RMK A01 T01051097  RH  023%=      5-min Rain = 0
KFAS 112035Z 01012G17KT 11/M10 A3029 RMK A01 T01051096  RH  023%=      5-min Rain = 0
KFAS 112040Z 02012KT 11/M10 A3029 RMK A01 T01051095  RH  024%=      5-min Rain = 0
KFAS 112045Z 02012KT 10/M09 A3029 RMK A01 T01031094  RH  024%=      5-min Rain = 0
KFAS 112050Z 02011G17KT 11/M09 A3029 RMK A01 T01071094  RH  023%=      5-min Rain = 0
KFAS 112055Z 02011G17KT 11/M10 A3029 RMK A01 T01051096  RH  023%=      5-min Rain = 0
KFAS 112100Z 02009G14KT 11/M09 A3029 RMK A01 T01061093  RH  024%=      5-min Rain = 0
KFAS 112105Z 02010G15KT 11/M09 A3028 RMK A01 T01081093  RH  023%=      5-min Rain = 0
KFAS 112110Z 02012G18KT 11/M09 A3028 RMK A01 T01101093  RH  023%=      5-min Rain = 0
KFAS 112115Z 03009G17KT 11/M09 A3028 RMK A01 T01081093  RH  023%=      5-min Rain = 0
KFAS 112120Z 01011G18KT 11/M09 A3028 RMK A01 T01111093  RH  023%=      5-min Rain = 0
KFAS 112125Z 01013KT 11/M09 A3028 RMK A01 T01121092  RH  023%=      5-min Rain = 0
KFAS 112130Z 01011KT 12/M09 A3028 RMK A01 T01151091  RH  023%=      5-min Rain = 0
KFAS 112135Z 01009G16KT 11/M09 A3028 RMK A01 T01101094  RH  023%=      5-min Rain = 0
KFAS 112140Z 00012G17KT 11/M09 A3028 RMK A01 T01101091  RH  023%=      5-min Rain = 0
KFAS 112145Z 01010G16KT 11/M09 A3028 RMK A01 T01111092  RH  023%=      5-min Rain = 0
KFAS 112150Z 01011G17KT 11/M09 A3028 RMK A01 T01141090  RH  023%=      5-min Rain = 0
KFAS 112155Z 03012KT 12/M09 A3028 RMK A01 T01161090  RH  023%=      5-min Rain = 0
KFAS 112200Z 01010G19KT 11/M09 A3028 RMK A01 T01121093  RH  023%=      5-min Rain = 0
KFAS 112205Z 00012G18KT 11/M10 A3028 RMK A01 T01131099  RH  022%=      5-min Rain = 0
KFAS 112210Z 03011G17KT 11/M10 A3028 RMK A01 T01141103  RH  021%=      5-min Rain = 0
KFAS 112215Z 01012G17KT 11/M10 A3027 RMK A01 T01131103  RH  021%=      5-min Rain = 0
KFAS 112220Z 02012G18KT 11/M10 A3027 RMK A01 T01131100  RH  021%=      5-min Rain = 0
KFAS 112225Z 03011KT 11/M10 A3028 RMK A01 T01141099  RH  021%=      5-min Rain = 0
KFAS 112230Z 02007KT 11/M10 A3028 RMK A01 T01081100  RH  022%=      5-min Rain = 0
KFAS 112235Z 01011KT 11/M11 A3028 RMK A01 T01081105  RH  021%=      5-min Rain = 0
KFAS 112240Z 01012KT 11/M11 A3028 RMK A01 T01071106  RH  021%=      5-min Rain = 0
KFAS 112245Z 01012KT 11/M11 A3028 RMK A01 T01051107  RH  021%=      5-min Rain = 0
KFAS 112250Z 02011G16KT 10/M11 A3028 RMK A01 T01031108  RH  021%=      5-min Rain = 0
KFAS 112255Z 03012KT 11/M11 A3028 RMK A01 T01061110  RH  021%=      5-min Rain = 0
KFAS 112300Z 02014KT 11/M11 A3028 RMK A01 T01071109  RH  021%=      5-min Rain = 0
KFAS 112305Z 01014KT 11/M11 A3028 RMK A01 T01051108  RH  021%=      5-min Rain = 0
KFAS 112310Z 01014KT 11/M12 A3028 RMK A01 T01051118  RH  019%=      5-min Rain = 0
KFAS 112315Z 01012KT 11/M12 A3029 RMK A01 T01081117  RH  019%=      5-min Rain = 0
KFAS 112320Z 02013KT 11/M11 A3029 RMK A01 T01081111  RH  020%=      5-min Rain = 0
KFAS 112325Z 01010KT 11/M11 A3029 RMK A01 T01051109  RH  021%=      5-min Rain = 0
KFAS 112330Z 02009KT 10/M11 A3029 RMK A01 T01031109  RH  021%=      5-min Rain = 0
KFAS 112335Z 01010KT 10/M11 A3029 RMK A01 T01011110  RH  021%=      5-min Rain = 0
KFAS 112340Z 03008KT 10/M11 A3029 RMK A01 T01011110  RH  021%=      5-min Rain = 0
KFAS 112345Z 02010KT 10/M11 A3029 RMK A01 T01011114  RH  021%=      5-min Rain = 0
KFAS 112350Z 02011KT 10/M12 A3029 RMK A01 T01031120  RH  019%=      5-min Rain = 0
KFAS 112355Z 02010KT 10/M12 A303 RMK A01 T01031120  RH  019%=      5-min Rain = 0
KFAS 120000Z 01011KT 10/M12 A303 RMK A01 T01031119  RH  019%=      5-min Rain = 0
KFAS 120005Z 01011KT 10/M12 A303 RMK A01 T01031116  RH  020%=      5-min Rain = 0
KFAS 120010Z 02010KT 10/M12 A303 RMK A01 T01001117  RH  020%=      5-min Rain = 0
KFAS 120015Z 02008KT 10/M11 A303 RMK A01 T00981114  RH  021%=      5-min Rain = 0
KFAS 120020Z 01009KT 10/M12 A303 RMK A01 T00961116  RH  021%=      5-min Rain = 0
KFAS 120025Z 01008KT 09/M12 A303 RMK A01 T00941115  RH  021%=      5-min Rain = 0
KFAS 120030Z 01008KT 09/M12 A3031 RMK A01 T00921117  RH  021%=      5-min Rain = 0
KFAS 120035Z 02007KT 09/M11 A3031 RMK A01 T00901111  RH  023%=      5-min Rain = 0
KFAS 120040Z 03008KT 09/M12 A3031 RMK A01 T00901116  RH  022%=      5-min Rain = 0
KFAS 120045Z 03007KT 09/M11 A3031 RMK A01 T00901113  RH  022%=      5-min Rain = 0
KFAS 120050Z 04007KT 09/M11 A3031 RMK A01 T00881109  RH  023%=      5-min Rain = 0
KFAS 120055Z 04007KT 09/M11 A3032 RMK A01 T00871111  RH  023%=      5-min Rain = 0
KFAS 120100Z 04008KT 09/M11 A3032 RMK A01 T00861113  RH  023%=      5-min Rain = 0
KFAS 120105Z 04008KT 08/M11 A3032 RMK A01 T00841113  RH  023%=      5-min Rain = 0
KFAS 120110Z 05007KT 08/M12 A3032 RMK A01 T00821115  RH  023%=      5-min Rain = 0
KFAS 120115Z 05007KT 08/M12 A3032 RMK A01 T00811116  RH  023%=      5-min Rain = 0
KFAS 120120Z 05006KT 08/M12 A3032 RMK A01 T00791116  RH  023%=      5-min Rain = 0
KFAS 120125Z 04007KT 08/M12 A3032 RMK A01 T00771115  RH  024%=      5-min Rain = 0
KFAS 120130Z 04007KT 08/M11 A3032 RMK A01 T00751113  RH  025%=      5-min Rain = 0
KFAS 120135Z 04007KT 07/M11 A3032 RMK A01 T00721111  RH  026%=      5-min Rain = 0
KFAS 120140Z 04008KT 07/M11 A3032 RMK A01 T00711111  RH  026%=      5-min Rain = 0
KFAS 120145Z 04007KT 07/M11 A3032 RMK A01 T00701110  RH  026%=      5-min Rain = 0
KFAS 120150Z 04006KT 07/M11 A3033 RMK A01 T00681111  RH  026%=      5-min Rain = 0
KFAS 120155Z 04006KT 07/M11 A3033 RMK A01 T00661111  RH  027%=      5-min Rain = 0
KFAS 120200Z 04006KT 06/M11 A3033 RMK A01 T00641114  RH  027%=      5-min Rain = 0
KFAS 120205Z 04005KT 06/M12 A3033 RMK A01 T00631115  RH  027%=      5-min Rain = 0
KFAS 120210Z 04004KT 06/M11 A3033 RMK A01 T00601113  RH  027%=      5-min Rain = 0
KFAS 120215Z 04004KT 06/M11 A3033 RMK A01 T00581114  RH  028%=      5-min Rain = 0
KFAS 120220Z 04005KT 06/M12 A3034 RMK A01 T00571116  RH  028%=      5-min Rain = 0
KFAS 120225Z 04006KT 06/M12 A3034 RMK A01 T00571116  RH  027%=      5-min Rain = 0
KFAS 120230Z 05007KT 06/M12 A3034 RMK A01 T00581116  RH  027%=      5-min Rain = 0
KFAS 120235Z 04006KT 06/M12 A3034 RMK A01 T00591117  RH  027%=      5-min Rain = 0
KFAS 120240Z 04005KT 06/M12 A3034 RMK A01 T00581115  RH  027%=      5-min Rain = 0
KFAS 120245Z 03004KT 05/M11 A3034 RMK A01 T00521113  RH  029%=      5-min Rain = 0
KFAS 120250Z 03004KT 05/M11 A3034 RMK A01 T00481111  RH  030%=      5-min Rain = 0
KFAS 120255Z 04004KT 05/M11 A3034 RMK A01 T00471107  RH  031%=      5-min Rain = 0
KFAS 120300Z 04004KT 05/M11 A3034 RMK A01 T00481109  RH  031%=      5-min Rain = 0
KFAS 120305Z 04004KT 05/M11 A3034 RMK A01 T00491112  RH  030%=      5-min Rain = 0
KFAS 120310Z 06004KT 05/M12 A3034 RMK A01 T00501115  RH  029%=      5-min Rain = 0
KFAS 120315Z 06004KT 05/M12 A3034 RMK A01 T00531116  RH  028%=      5-min Rain = 0
KFAS 120320Z 05004KT 06/M12 A3034 RMK A01 T00591115  RH  027%=      5-min Rain = 0
KFAS 120325Z 05004KT 06/M11 A3034 RMK A01 T00601114  RH  027%=      5-min Rain = 0
KFAS 120330Z 05004KT 06/M11 A3034 RMK A01 T00561110  RH  029%=      5-min Rain = 0
KFAS 120335Z 06006KT 05/M10 A3035 RMK A01 T00511104  RH  031%=      5-min Rain = 0
KFAS 120340Z 06006KT 05/M11 A3035 RMK A01 T00521110  RH  030%=      5-min Rain = 0
KFAS 120345Z 05005KT 05/M11 A3035 RMK A01 T00541112  RH  029%=      5-min Rain = 0
KFAS 120350Z 05005KT 05/M11 A3035 RMK A01 T00541111  RH  029%=      5-min Rain = 0
KFAS 120355Z 05006KT 05/M11 A3035 RMK A01 T00511110  RH  030%=      5-min Rain = 0
KFAS 120400Z 05007KT 05/M11 A3035 RMK A01 T00491110  RH  030%=      5-min Rain = 0
KFAS 120405Z 04008KT 05/M11 A3036 RMK A01 T00491110  RH  030%=      5-min Rain = 0
KFAS 120410Z 05008KT 05/M11 A3036 RMK A01 T00481112  RH  030%=      5-min Rain = 0
KFAS 120415Z 05008KT 05/M12 A3036 RMK A01 T00471115  RH  029%=      5-min Rain = 0
KFAS 120420Z 06008KT 05/M12 A3036 RMK A01 T00471118  RH  029%=      5-min Rain = 0
KFAS 120425Z 06007KT 05/M12 A3036 RMK A01 T00471118  RH  029%=      5-min Rain = 0
KFAS 120430Z 06006KT 04/M12 A3036 RMK A01 T00441117  RH  030%=      5-min Rain = 0
KFAS 120435Z 06006KT 04/M12 A3036 RMK A01 T00411117  RH  030%=      5-min Rain = 0
KFAS 120440Z 06005KT 04/M11 A3036 RMK A01 T00371114  RH  032%=      5-min Rain = 0
KFAS 120445Z 06005KT 04/M12 A3036 RMK A01 T00361115  RH  032%=      5-min Rain = 0
KFAS 120450Z 06005KT 04/M12 A3036 RMK A01 T00361116  RH  032%=      5-min Rain = 0
KFAS 120455Z 06004KT 04/M12 A3037 RMK A01 T00361117  RH  031%=      5-min Rain = 0

Page generated in 0.0107 seconds.